Urbanna, Virginia
Current Conditions -  °F | °C
As of 5:35 PM on Monday 26 Jan 2015 (Local Time) from KW75 Reporting Station
Overcast Overcast  
Wind Chill: 32°   Ceiling: 800
Heat Index: 38°   Visibility: 10mi
Dew Point: 36°   Wind: 9mph
Humidity: 90%   Direction: 330°NNW
Pressure: 29.62"   Gusts: NA
Location:  37.64°N, 76.57°W
Report Text: KW75 262235Z AUTO 33008KT 10SM OVC008 04/02 A2962 RMK AO1 T00350020
Loading
Personal Weather Stations






























Interactive Weather Map New forecast layout! Learn more

10-Day Weather Forecast

Advertisements
Track Severe Weather on mobile